Time;durP1;ratioP1;P1;durP2;ratioP2;P2;SDS_P1;SDS_P2;PMS_P1;PMS_P2;Temp;Humidity;BMP_temperature;BMP_pressure;BME280_temperature;BME280_humidity;BME280_pressure;Samples;Min_cycle;Max_cycle;Signal;HPM_P1;HPM_P2
2022/03/31 00:00:15;;;;;;;23.23;13.50;;;4.20;99.90;;;;;;20650217;28;20485;-45
2022/03/31 00:10:26;;;;;;;30.20;14.48;;;4.10;99.90;;;;;;20683366;28;20446;-46
2022/03/31 00:20:28;;;;;;;;;;;3.90;99.90;;;;;;20680571;28;20180;-45
2022/03/31 00:30:32;;;;;;;21.90;12.07;;;3.90;99.90;;;;;;20663006;28;19914;-47
2022/03/31 00:40:34;;;;;;;22.50;10.77;;;3.90;99.90;;;;;;20678594;28;20050;-44
2022/03/31 00:50:37;;;;;;;20.13;9.07;;;3.80;99.90;;;;;;20677939;28;20093;-46
2022/03/31 01:00:39;;;;;;;162.75;24.48;;;3.80;99.90;;;;;;20676516;28;20046;-48
2022/03/31 01:10:42;;;;;;;28.42;14.25;;;3.80;99.90;;;;;;20677694;28;20089;-48
2022/03/31 01:20:44;;;;;;;30.77;17.42;;;3.80;99.90;;;;;;20675369;28;20050;-49
2022/03/31 01:30:47;;;;;;;176.65;21.65;;;3.70;99.90;;;;;;20674843;28;20493;-50
2022/03/31 01:40:50;;;;;;;25.13;12.77;;;3.70;99.90;;;;;;20674225;28;20054;-46
2022/03/31 01:50:53;;;;;;;24.25;11.45;;;3.60;99.90;;;;;;20640732;28;20046;-47
2022/03/31 02:00:55;;;;;;;21.10;10.98;;;3.60;99.90;;;;;;20672484;28;20042;-46
2022/03/31 02:10:57;;;;;;;27.05;13.52;;;3.30;99.90;;;;;;20673750;28;20486;-49
2022/03/31 02:21:00;;;;;;;29.95;15.57;;;3.20;99.90;;;;;;20655328;28;20046;-46
2022/03/31 02:31:03;;;;;;;24.27;10.85;;;3.00;99.90;;;;;;20670822;28;20046;-46
2022/03/31 02:41:05;;;;;;;23.02;10.60;;;2.80;99.90;;;;;;20669808;28;20124;-47
2022/03/31 02:51:08;;;;;;;23.83;10.52;;;2.80;99.90;;;;;;20669307;28;20073;-46
2022/03/31 03:01:10;;;;;;;18.17;7.60;;;2.80;99.90;;;;;;20668937;28;20118;-47
2022/03/31 03:11:15;;;;;;;20.98;6.95;;;2.90;99.90;;;;;;20671975;28;20074;-49
2022/03/31 03:21:17;;;;;;;20.08;8.10;;;2.90;99.90;;;;;;20669327;28;20030;-49
2022/03/31 03:31:21;;;;;;;24.65;9.80;;;3.00;99.90;;;;;;20667568;28;20100;-48
2022/03/31 03:41:23;;;;;;;18.20;9.05;;;2.90;99.90;;;;;;20683073;28;20125;-46
2022/03/31 03:51:26;;;;;;;26.15;11.73;;;2.90;99.90;;;;;;20666182;28;20406;-48
2022/03/31 04:01:28;;;;;;;20.90;10.35;;;2.90;99.90;;;;;;20665766;28;20034;-46
2022/03/31 04:11:31;;;;;;;12.85;5.07;;;3.00;99.90;;;;;;20681030;28;20092;-47
2022/03/31 04:21:33;;;;;;;20.52;11.27;;;3.10;99.90;;;;;;20680281;28;20478;-47
2022/03/31 04:31:39;;;;;;;23.77;11.00;;;3.20;99.90;;;;;;20679318;28;20485;-50
2022/03/31 04:41:43;;;;;;;16.35;7.07;;;3.10;99.90;;;;;;20677521;28;20120;-47
2022/03/31 04:51:45;;;;;;;20.13;11.80;;;3.10;99.90;;;;;;20677765;28;20034;-51
2022/03/31 05:01:48;;;;;;;20.33;11.60;;;3.00;99.90;;;;;;20677341;28;20108;-49
2022/03/31 05:11:51;;;;;;;18.50;8.60;;;2.90;99.90;;;;;;20677654;28;20038;-49
2022/03/31 05:21:53;;;;;;;22.20;10.57;;;3.00;99.90;;;;;;20675658;28;20041;-47
2022/03/31 05:31:57;;;;;;;13.88;6.03;;;3.00;99.90;;;;;;20642607;28;20493;-48
2022/03/31 05:42:01;;;;;;;25.65;11.90;;;3.00;99.90;;;;;;20674112;28;20070;-47
2022/03/31 05:52:03;;;;;;;25.95;13.13;;;3.00;99.90;;;;;;20672878;28;20150;-50
2022/03/31 06:02:07;;;;;;;23.15;11.38;;;3.10;99.90;;;;;;20672369;28;20061;-51
2022/03/31 06:12:09;;;;;;;18.75;10.32;;;3.20;99.90;;;;;;20672097;28;20092;-47
2022/03/31 06:22:13;;;;;;;21.63;11.57;;;3.20;99.90;;;;;;20671577;28;20046;-50
2022/03/31 06:32:16;;;;;;;20.77;11.13;;;3.30;99.90;;;;;;20670483;28;20568;-51
2022/03/31 06:42:18;;;;;;;17.15;9.27;;;3.50;99.90;;;;;;20669917;28;20050;-48
2022/03/31 06:52:21;;;;;;;13.55;8.18;;;3.80;99.90;;;;;;20668993;28;20497;-47
2022/03/31 07:02:23;;;;;;;16.65;7.82;;;4.10;99.90;;;;;;20668660;28;20112;-51
2022/03/31 07:12:26;;;;;;;15.43;8.52;;;4.60;99.90;;;;;;20653418;28;20042;-49
2022/03/31 07:22:28;;;;;;;14.23;8.32;;;4.70;99.90;;;;;;20668016;28;20486;-49
2022/03/31 07:32:35;;;;;;;16.40;9.73;;;4.90;99.90;;;;;;20651339;28;20085;-47
2022/03/31 07:42:38;;;;;;;19.67;10.63;;;5.00;99.90;;;;;;20667575;28;20100;-48
2022/03/31 07:52:42;;;;;;;25.40;13.00;;;4.60;99.90;;;;;;20667403;28;20034;-46
2022/03/31 08:02:48;;;;;;;20.60;11.88;;;4.30;99.90;;;;;;20666814;28;20473;-53
2022/03/31 08:12:52;;;;;;;23.52;12.85;;;4.50;99.90;;;;;;20676004;28;20549;-52
2022/03/31 08:22:55;;;;;;;22.20;11.93;;;4.70;99.90;;;;;;20680107;28;20030;-46
2022/03/31 08:32:58;;;;;;;22.50;12.07;;;4.90;99.90;;;;;;20663282;28;20089;-48
2022/03/31 08:43:02;;;;;;;20.90;11.60;;;5.60;99.90;;;;;;20678639;28;20050;-47
2022/03/31 08:53:05;;;;;;;19.35;10.32;;;6.20;99.90;;;;;;20678044;28;20102;-47
2022/03/31 09:03:07;;;;;;;14.93;9.68;;;6.70;99.90;;;;;;20677284;28;20442;-51
2022/03/31 09:13:22;;;;;;;19.90;11.15;;;7.30;99.90;;;;;;20644295;28;20035;-51
2022/03/31 09:23:28;;;;;;;13.48;9.10;;;7.80;99.90;;;;;;20675191;28;20038;-51
2022/03/31 09:33:38;;;;;;;16.30;9.73;;;7.70;99.90;;;;;;20675063;28;20069;-47
2022/03/31 09:43:41;;;;;;;15.60;9.25;;;7.30;99.90;;;;;;20673979;28;20081;-53
2022/03/31 09:53:45;;;;;;;21.65;12.18;;;7.10;99.90;;;;;;20673647;28;20093;-49
2022/03/31 10:03:54;;;;;;;17.98;9.40;;;7.60;99.90;;;;;;20672814;28;20108;-48
2022/03/31 10:14:24;;;;;;;16.90;8.85;;;7.70;99.90;;;;;;20651982;28;20452;-50
2022/03/31 10:24:44;;;;;;;19.92;11.00;;;7.60;99.90;;;;;;20638896;28;20061;-48
2022/03/31 10:34:50;;;;;;;15.05;9.18;;;7.30;99.90;;;;;;20669596;28;20088;-48
2022/03/31 10:45:14;;;;;;;15.35;8.38;;;6.80;99.90;;;;;;20669755;28;20053;-47
2022/03/31 10:55:19;;;;;;;20.70;9.65;;;6.90;99.90;;;;;;20669372;28;20085;-50
2022/03/31 11:05:25;;;;;;;21.58;12.10;;;7.30;99.90;;;;;;20669258;28;20034;-47
2022/03/31 11:15:28;;;;;;;18.42;9.43;;;7.90;99.90;;;;;;20652375;28;20034;-47
2022/03/31 11:25:31;;;;;;;16.38;10.20;;;7.80;99.90;;;;;;20668094;28;20034;-50
2022/03/31 11:35:34;;;;;;;19.00;10.63;;;7.90;99.90;;;;;;20667701;28;20399;-51
2022/03/31 11:45:44;;;;;;;23.02;13.20;;;7.40;99.90;;;;;;20657175;28;20069;-47
2022/03/31 11:55:58;;;;;;;22.00;10.53;;;7.40;99.90;;;;;;20666068;28;20563;-49
2022/03/31 12:06:02;;;;;;;23.75;14.48;;;7.70;99.90;;;;;;20652972;28;20039;-47
2022/03/31 12:16:09;;;;;;;43.15;13.23;;;7.90;99.90;;;;;;20680902;28;20065;-48
2022/03/31 12:26:20;;;;;;;334.42;21.60;;;7.80;99.90;;;;;;20680245;28;20101;-50
2022/03/31 12:36:29;;;;;;;849.40;45.20;;;7.40;99.90;;;;;;20679130;28;20073;-49
2022/03/31 12:46:35;;;;;;;610.80;34.17;;;6.80;99.90;;;;;;20662565;28;20101;-48
2022/03/31 12:56:49;;;;;;;726.63;40.25;;;6.70;99.90;;;;;;20677148;28;20038;-48
2022/03/31 13:06:51;;;;;;;569.35;32.90;;;6.60;99.90;;;;;;20677335;28;20537;-47
2022/03/31 13:16:54;;;;;;;53.70;16.05;;;6.50;99.90;;;;;;20676766;28;20038;-49
2022/03/31 13:26:57;;;;;;;99.15;16.33;;;6.70;99.90;;;;;;20675680;28;20093;-47
2022/03/31 13:37:03;;;;;;;859.90;46.95;;;7.30;99.90;;;;;;20674829;28;20101;-46
2022/03/31 13:47:08;;;;;;;621.00;35.78;;;7.10;99.90;;;;;;20674103;28;20038;-54
2022/03/31 14:07:32;;;;;;;1113.95;58.30;;;6.30;99.90;;;;;;20675547;28;20113;-47
2022/03/31 14:17:35;;;;;;;1223.80;58.03;;;5.90;99.90;;;;;;20672005;28;20042;-48
2022/03/31 14:27:37;;;;;;;1336.82;65.43;;;5.60;99.90;;;;;;20671220;28;20405;-47
2022/03/31 14:37:40;;;;;;;893.20;48.60;;;5.50;99.90;;;;;;20670070;28;20050;-48
2022/03/31 14:47:46;;;;;;;881.08;46.00;;;5.60;99.90;;;;;;20670170;28;20074;-49
2022/03/31 14:57:48;;;;;;;1474.22;68.90;;;5.70;99.90;;;;;;20669532;28;20034;-48
2022/03/31 15:07:51;;;;;;;1110.57;57.53;;;5.80;99.90;;;;;;20668950;28;20445;-47
2022/03/31 15:17:54;;;;;;;1280.28;60.88;;;5.70;99.90;;;;;;20671598;28;20101;-52
2022/03/31 15:27:56;;;;;;;978.42;53.13;;;5.60;99.90;;;;;;20652763;28;20065;-52
2022/03/31 15:37:59;;;;;;;1020.95;51.85;;;5.50;99.90;;;;;;20650848;28;20050;-49
2022/03/31 15:48:03;;;;;;;1378.18;73.22;;;5.50;99.90;;;;;;20683069;28;20046;-48
2022/03/31 15:58:06;;;;;;;1073.53;56.55;;;5.40;99.90;;;;;;20682370;28;20035;-46
2022/03/31 16:08:08;;;;;;;1208.57;62.35;;;5.40;99.90;;;;;;20682959;28;20031;-46
2022/03/31 16:18:11;;;;;;;815.30;39.90;;;5.40;99.90;;;;;;20680520;28;20093;-46
2022/03/31 16:28:14;;;;;;;1110.47;59.28;;;5.40;99.90;;;;;;20679998;28;20038;-51
2022/03/31 16:38:19;;;;;;;955.97;48.33;;;5.40;99.90;;;;;;20679023;28;20402;-49
2022/03/31 16:48:23;;;;;;;1182.47;54.03;;;5.40;99.90;;;;;;20678938;28;20406;-52
2022/03/31 16:58:27;;;;;;;1259.68;64.30;;;5.30;99.90;;;;;;20677935;28;20188;-47
2022/03/31 17:08:29;;;;;;;1480.13;74.43;;;5.30;99.90;;;;;;20677091;28;20042;-46
2022/03/31 17:18:32;;;;;;;929.40;46.88;;;5.20;99.90;;;;;;20676310;28;20038;-46
2022/03/31 17:28:34;;;;;;;1252.97;59.35;;;5.20;99.90;;;;;;20643252;28;20065;-50
2022/03/31 17:38:37;;;;;;;63.97;18.40;;;5.10;99.90;;;;;;20655163;28;20097;-46
2022/03/31 17:48:40;;;;;;;149.20;20.40;;;4.90;99.90;;;;;;20656899;28;20105;-50
2022/03/31 17:58:44;;;;;;;1721.70;88.95;;;4.70;99.90;;;;;;20672891;28;20038;-50
2022/03/31 18:08:46;;;;;;;358.77;27.35;;;4.80;99.90;;;;;;20642199;28;20081;-46
2022/03/31 18:18:49;;;;;;;125.80;25.85;;;4.70;99.90;;;;;;20671878;28;20398;-46
2022/03/31 18:28:53;;;;;;;40.00;20.67;;;4.60;99.90;;;;;;20672139;28;20042;-47
2022/03/31 18:38:59;;;;;;;37.53;19.23;;;4.40;99.90;;;;;;20670212;28;20791;-47
2022/03/31 18:49:05;;;;;;;29.77;15.70;;;4.10;99.90;;;;;;20669882;28;20038;-46
2022/03/31 18:59:09;;;;;;;32.72;17.25;;;3.50;99.90;;;;;;20668238;28;20116;-46
2022/03/31 19:09:12;;;;;;;41.63;19.40;;;3.10;99.90;;;;;;20669101;28;20336;-50
2022/03/31 19:19:14;;;;;;;55.33;25.02;;;2.90;99.90;;;;;;20668871;28;20085;-46
2022/03/31 19:29:17;;;;;;;41.33;19.42;;;2.80;99.90;;;;;;20668356;28;20069;-49
2022/03/31 19:39:20;;;;;;;59.58;23.45;;;2.60;99.90;;;;;;20668211;28;20050;-49
2022/03/31 19:49:27;;;;;;;46.00;22.38;;;2.70;99.90;;;;;;20668171;28;20042;-45
2022/03/31 19:59:30;;;;;;;46.25;21.45;;;3.10;99.90;;;;;;20667741;28;20118;-46
2022/03/31 20:09:33;;;;;;;48.47;22.90;;;3.40;99.90;;;;;;20676992;28;20453;-46
2022/03/31 20:19:36;;;;;;;39.72;20.58;;;3.70;99.90;;;;;;20648439;28;20490;-47
2022/03/31 20:29:42;;;;;;;335.10;34.17;;;4.00;99.90;;;;;;20680191;28;20085;-47
2022/03/31 20:39:45;;;;;;;640.72;45.85;;;4.10;99.90;;;;;;20679057;28;20101;-48
2022/03/31 20:49:49;;;;;;;773.00;49.33;;;4.30;99.90;;;;;;20678765;28;20034;-47
2022/03/31 20:59:53;;;;;;;39.13;20.77;;;4.50;99.90;;;;;;20678386;28;20489;-53
2022/03/31 21:09:56;;;;;;;35.40;16.98;;;4.60;99.90;;;;;;20660933;28;20042;-47
2022/03/31 21:19:59;;;;;;;31.95;16.23;;;4.50;99.90;;;;;;20659118;28;20034;-47
2022/03/31 21:30:02;;;;;;;30.50;16.92;;;4.40;99.90;;;;;;20659111;28;20133;-46
2022/03/31 21:40:07;;;;;;;29.83;15.50;;;4.20;99.90;;;;;;20642557;28;20453;-45
2022/03/31 21:50:10;;;;;;;30.38;16.17;;;4.10;99.90;;;;;;20673664;28;20046;-47
2022/03/31 22:00:38;;;;;;;39.38;18.63;;;4.10;99.90;;;;;;20673291;28;20112;-49
2022/03/31 22:21:03;;;;;;;32.50;16.98;;;4.20;99.90;;;;;;20671849;28;20046;-47
2022/03/31 22:31:06;;;;;;;52.78;20.00;;;4.00;99.90;;;;;;20654376;28;20066;-46
2022/03/31 22:41:10;;;;;;;47.20;20.77;;;4.10;99.90;;;;;;20653653;28;20058;-47
2022/03/31 22:51:13;;;;;;;37.28;17.50;;;4.20;99.90;;;;;;20670068;28;20038;-48
2022/03/31 23:01:17;;;;;;;42.00;20.08;;;4.30;99.90;;;;;;20670345;28;20095;-48
2022/03/31 23:11:22;;;;;;;46.30;22.25;;;4.40;99.90;;;;;;20652389;28;20065;-49
2022/03/31 23:21:24;;;;;;;38.67;19.60;;;4.40;99.90;;;;;;20668473;28;20101;-53
2022/03/31 23:31:26;;;;;;;40.50;19.77;;;4.40;99.90;;;;;;20668141;28;20085;-46
2022/03/31 23:41:29;;;;;;;365.45;28.92;;;4.40;99.90;;;;;;20673921;28;20419;-46
2022/03/31 23:51:31;;;;;;;756.75;44.03;;;4.50;99.90;;;;;;20683115;28;20371;-47
